• Join FlightAware (Why Join?)
  • Login
  • US Flag 
04:18AM EST


 

Airport Tracker/Info


-or-


 

Live Flight TrackerFlight Track Log ✈ EJA727 ✈ 27-Aug-2013 ✈ KSAV - KLBE

Flight Track Log - Related Links

Times and Time Zones

All times are in EDT time to prevent confusion due to time zone crossing. See the EJA727 flight status page for this flight to view local times or setup timezone preferences in your user account.

Time Position Orientation Groundspeed Altitude Reporting Facility
EDT Latitude Longitude Course Direction KTS MPH feet Rate Location/Type
04:51PM 32.2042 -81.1125 North 266 306 8,300  Level Jacksonville Center
04:52PM 32.2750 -81.1086 North 266 306 11,400 2,900 Climbing Jacksonville Center
04:53PM 32.3711 -81.1044 North 299 344 14,100 2,900 Climbing Jacksonville Center
04:54PM 32.4817 -81.1047 360° North 359 413 17,200 2,800 Climbing Jacksonville Center
04:55PM 32.5903 -81.1000 North 382 440 19,700 2,450 Climbing Jacksonville Center
04:56PM 32.6988 -81.1501 North  Level FlightAware Approximate
04:56PM 32.6881 -81.0931 North 382 440 22,100  Level Jacksonville Center
04:57PM 32.7968 -81.1398 North  Level FlightAware Approximate
04:57PM 32.8050 -81.0908 North 387 445 24,200  Level Jacksonville Center
04:58PM 32.9219 -81.0861 North 406 467 26,200 1,900 Climbing Jacksonville Center
04:59PM 33.0408 -81.0761 North 412 474 28,000 1,700 Climbing Jacksonville Center
05:00PM 33.1636 -81.0639 North 429 494 29,600 1,450 Climbing Jacksonville Center
05:01PM 33.2908 -81.0536 North 441 507 30,900 700 Climbing Jacksonville Center
05:02PM 33.4347 -81.0433 North 452 520 31,000 50 Climbing Jacksonville Center
05:03PM 33.5703 -81.0331 North 466 536 31,000 300 Level Jacksonville Center
05:04PM 33.7036 -81.0178 North 476 548 31,600 850 Climbing Jacksonville Center
05:05PM 33.8328 -81.0100 North 476 548 32,700 1,100 Climbing Jacksonville Center
05:06PM 33.9642 -80.9997 North 476 548 33,800 873 Climbing Jacksonville Center
05:08PM 34.1631 -80.9786 North 450 518 35,000 456 Climbing Atlanta Center
05:09PM 34.2881 -80.9639 North 450 518 35,000  Level Atlanta Center
05:10PM 34.4214 -80.9592 North 443 510 35,000  Level Atlanta Center
05:11PM 34.5442 -80.9444 North 441 507 35,000  Level Atlanta Center
05:12PM 34.6692 -80.9375 North 441 507 35,000 450 Level Atlanta Center
05:13PM 34.7900 -80.9253 North 436 502 35,900 1,400 Climbing Atlanta Center
05:14PM 34.9064 -80.9133 North 429 494 37,800 1,550 Climbing Atlanta Center
05:15PM 35.0211 -80.9039 North 413 475 39,000 600 Climbing Atlanta Center
05:16PM 35.1353 -80.8894 North 405 466 39,000  Level Atlanta Center
05:17PM 35.2519 -80.8800 North 405 466 39,000  Level Atlanta Center
05:18PM 35.3686 -80.8678 North 416 479 39,000  Level Atlanta Center
05:19PM 35.4850 -80.8558 North 421 484 39,000  Level Atlanta Center
05:20PM 35.6017 -80.8461 North 421 484 39,000  Level Atlanta Center
05:21PM 35.7183 -80.8364 North 421 484 39,000 450 Level Atlanta Center
05:22PM 35.8222 -80.8272 North 416 479 39,900 1,000 Climbing Atlanta Center
05:23PM 35.9325 -80.8203 North 404 465 41,000 550 Climbing Atlanta Center
05:24PM 36.0408 -80.8083 North 404 465 41,000  Level Atlanta Center
05:25PM 36.1447 -80.7989 North 383 441 41,000 -411 Level Atlanta Center
05:27PM 36.3775 -80.7775 North 407 468 39,700 -660 Descending Washington Center
05:28PM 36.5011 -80.7650 North 407 468 38,900 -843 Descending Washington Center
05:29PM 36.6142 -80.7597 North 412 474 38,000 -793 Descending Washington Center
05:30PM 36.7208 -80.7514 North 406 467 37,300 -706 Descending Washington Center
05:31PM 36.8361 -80.7408 North 411 473 36,600 -712 Descending Washington Center
05:32PM 36.9553 -80.7306 North 411 473 35,900 -700 Descending Washington Center
05:33PM 37.0708 -80.7175 North 416 479 35,200 -446 Descending Washington Center
05:34PM 37.1956 -80.6736 16° North 416 479 35,000 -99 Descending Washington Center
05:35PM 37.3125 -80.6267 18° North 421 484 35,000 -793 Level Washington Center
05:36PM 37.4269 -80.5792 18° North 427 491 33,400 -992 Descending Washington Center
05:37PM 37.5417 -80.5317 18° North 432 497 33,000 -203 Descending Washington Center
05:38PM 37.6542 -80.4867 18° North 432 497 33,000 -610 Level Washington Center
05:39PM 37.7581 -80.4433 18° North 432 497 31,800 -1,350 Descending Washington Center
05:40PM 37.8811 -80.3936 18° North 438 504 30,300 -1,488 Descending Washington Center
05:41PM 38.0061 -80.3408 18° North 450 518 28,800 -1,488 Descending Washington Center
05:42PM 38.1311 -80.2933 17° North 460 529 27,300 -1,664 Descending Washington Center
05:43PM 38.2731 -80.2361 18° North 470 541 25,500 -1,613 Descending Washington Center
05:44PM 38.3961 -80.1856 18° North 470 541 24,100 -1,426 Descending Washington Center
05:45PM 38.5167 -80.1372 17° North 465 535 22,600 -1,107 Descending Washington Center
05:47PM 38.7194 -80.0511 18° North 457 526 21,000 -1,120 Descending Cleveland Center
05:48PM 38.8317 -80.0050 18° North 451 519 19,500 -1,000 Descending Cleveland Center
05:49PM 38.9442 -79.9614 17° North 451 519 19,000 -250 Descending Cleveland Center
05:50PM 39.0481 -79.9203 17° North 415 478 19,000  Level Cleveland Center
05:51PM 39.1542 -79.8739 19° North 399 459 19,000 -50 Level Cleveland Center
05:52PM 39.2600 -79.8325 17° North 399 459 18,900 -1,250 Descending Cleveland Center
05:53PM 39.3722 -79.7856 18° North 399 459 16,500 -2,211 Descending Cleveland Center
05:54PM 39.4533 -79.7525 17° North 366 421 14,700 -2,039 Descending Cleveland Center
05:55PM 39.5344 -79.7192 18° North 369 425 13,000 -2,092 Descending Cleveland Center
05:56PM 39.6258 -79.6828 17° North 343 395 10,900 -1,884 Descending Cleveland Center
05:57PM 39.7047 -79.6522 17° North 259 298 9,200 -1,574 Descending Cleveland Center
05:58PM 39.7756 -79.6189 20° North 251 289 7,700 -1,091 Descending Cleveland Center
05:59PM 39.8397 -79.5747 28° Northeast 272 313 7,000 -347 Descending Cleveland Center
06:00PM 39.8975 -79.5169 37° Northeast 272 313 7,000  Level Cleveland Center
06:01PM 39.9678 -79.4536 35° Northeast 277 319 7,000 -397 Level Cleveland Center
06:02PM 40.0278 -79.3983 35° Northeast 277 319 6,200 -942 Descending Cleveland Center
06:03PM 40.0897 -79.3403 36° Northeast 270 311 5,100 -836 Descending Cleveland Center
06:04PM 40.1494 -79.2847 35° Northeast 269 310 4,500 -298 Descending Cleveland Center
06:05PM 40.2153 -79.2208 37° Northeast 269 310 4,500  Level Cleveland Center
06:06PM 40.2731 -79.1628 37° Northeast 270 311 4,500  Level Cleveland Center
06:07PM 40.3392 -79.1258 23° Northeast 263 303 4,500  Level Cleveland Center
06:08PM 40.4100 -79.1217 North 259 298 4,500  Level Cleveland Center
06:09PM 40.4278 -79.1947 288° West 239 275 4,500 -99 Level Cleveland Center
06:10PM 40.3931 -79.2528 232° Southwest 173 199 4,300 -496 Descending Cleveland Center
06:11PM 40.3642 -79.2914 226° Southwest 134 154 3,500 -756 Descending Cleveland Center
06:12PM 40.3375 -79.3328 230° Southwest 122 140 2,700 -661 Descending Cleveland Center
06:13PM 40.3108 -79.3606 218° Southwest 123 142 2,100 -590 Descending Cleveland Center